createdAt,value
2023-03-27T00:02:11.690Z,1.32
2023-03-27T00:04:38.453Z,1.36
2023-03-27T00:07:07.720Z,1.40
2023-03-27T00:09:34.348Z,1.44
2023-03-27T00:12:02.344Z,1.40
2023-03-27T00:14:30.359Z,1.42
2023-03-27T00:17:00.128Z,1.24
2023-03-27T00:19:26.892Z,1.24
2023-03-27T00:21:54.878Z,1.20
2023-03-27T00:24:22.196Z,1.23
2023-03-27T00:26:48.812Z,1.20
2023-03-27T00:29:15.441Z,1.04
2023-03-27T00:31:42.076Z,1.07
2023-03-27T00:34:08.713Z,0.88
2023-03-27T00:36:35.347Z,0.87
2023-03-27T00:39:02.028Z,0.86
2023-03-27T00:41:28.694Z,0.77
2023-03-27T00:43:58.199Z,0.87
2023-03-27T00:46:44.960Z,0.74
2023-03-27T00:49:13.594Z,0.70
2023-03-27T00:51:41.724Z,0.46
2023-03-27T00:54:09.806Z,0.55
2023-03-27T00:56:38.556Z,0.62
2023-03-27T00:59:10.881Z,0.56
2023-03-27T01:01:38.379Z,0.54
2023-03-27T01:04:06.841Z,0.55
2023-03-27T01:06:33.497Z,0.42
2023-03-27T01:09:00.117Z,0.32
2023-03-27T01:11:39.483Z,0.24
2023-03-27T01:14:13.429Z,0.07
2023-03-27T01:16:45.075Z,0.20
2023-03-27T01:19:40.161Z,0.18
2023-03-27T01:22:22.673Z,0.15
2023-03-27T01:25:22.469Z,0.05
2023-03-27T01:27:58.570Z,0.08
2023-03-27T01:30:34.340Z,0.03
2023-03-27T01:33:21.553Z,0.01
2023-03-27T01:36:00.564Z,-0.04
2023-03-27T01:39:05.396Z,-0.08
2023-03-27T01:41:42.036Z,-0.09
2023-03-27T01:44:43.369Z,-0.10
2023-03-27T01:47:22.957Z,-0.20
2023-03-27T01:50:04.753Z,-0.30
2023-03-27T01:52:33.227Z,-0.35
2023-03-27T01:55:05.028Z,-0.40
2023-03-27T01:57:49.446Z,-0.46
2023-03-27T02:00:21.951Z,-0.54
2023-03-27T02:03:09.208Z,-0.60
2023-03-27T02:05:44.650Z,-0.70
2023-03-27T02:08:15.520Z,-0.72
2023-03-27T02:10:45.773Z,-0.60
2023-03-27T02:13:21.338Z,-0.73
2023-03-27T02:15:49.805Z,-0.43
2023-03-27T02:18:26.492Z,-0.67
2023-03-27T02:20:53.264Z,-0.65
2023-03-27T02:23:22.987Z,-0.64
2023-03-27T02:25:49.926Z,-0.68
2023-03-27T02:28:31.939Z,-0.60
2023-03-27T02:31:31.739Z,-0.61
2023-03-27T02:34:34.190Z,-0.58
2023-03-27T02:37:12.331Z,-0.70
2023-03-27T02:40:05.323Z,-0.64
2023-03-27T02:43:14.498Z,-0.72
2023-03-27T02:45:52.539Z,-0.71
2023-03-27T02:48:35.354Z,-0.60
2023-03-27T02:51:07.432Z,-0.64
2023-03-27T02:53:38.286Z,-0.64
2023-03-27T02:56:06.934Z,-0.69
2023-03-27T02:58:50.076Z,-0.70
2023-03-27T03:01:18.811Z,-0.69
2023-03-27T03:03:55.449Z,-0.70
2023-03-27T03:06:29.659Z,-0.75
2023-03-27T03:09:03.424Z,-0.96
2023-03-27T03:11:30.534Z,-0.96
2023-03-27T03:13:57.549Z,-0.98
2023-03-27T03:16:24.243Z,-0.92
2023-03-27T03:18:51.318Z,-1.06
2023-03-27T03:21:18.185Z,-1.00
2023-03-27T03:23:57.845Z,-0.94
2023-03-27T03:26:27.153Z,-1.02
2023-03-27T03:29:00.839Z,-1.00
2023-03-27T03:31:44.124Z,-1.00
2023-03-27T03:34:18.650Z,-1.01
2023-03-27T03:36:49.250Z,-1.10
2023-03-27T03:39:16.839Z,-1.19
2023-03-27T03:41:43.484Z,-1.23
2023-03-27T03:44:10.544Z,-1.19
2023-03-27T03:46:37.300Z,-1.15
2023-03-27T03:49:07.172Z,-1.14
2023-03-27T03:51:35.369Z,-1.17
2023-03-27T03:54:02.467Z,-1.13
2023-03-27T03:56:30.588Z,-1.14
2023-03-27T03:58:57.772Z,-1.25
2023-03-27T04:01:26.276Z,-1.33
2023-03-27T04:03:53.148Z,-1.22
2023-03-27T04:06:25.433Z,-1.39
2023-03-27T04:08:53.141Z,-1.24
2023-03-27T04:11:20.221Z,-1.49
2023-03-27T04:13:46.873Z,-1.45
2023-03-27T04:16:13.624Z,-1.38
2023-03-27T04:18:41.431Z,-1.48
2023-03-27T04:21:15.700Z,-1.43
2023-03-27T04:23:43.137Z,-1.71
2023-03-27T04:26:12.212Z,-1.69
2023-03-27T04:28:39.814Z,-1.66
2023-03-27T04:31:07.837Z,-1.68
2023-03-27T04:33:39.153Z,-1.72
2023-03-27T04:36:07.954Z,-1.85
2023-03-27T04:38:39.220Z,-1.83
2023-03-27T04:41:06.170Z,-1.85
2023-03-27T04:43:36.784Z,-1.80
2023-03-27T04:46:07.294Z,-1.94
2023-03-27T04:48:34.590Z,-2.01
2023-03-27T04:51:01.391Z,-1.80
2023-03-27T04:53:30.389Z,-1.87
2023-03-27T04:55:57.400Z,-1.94
2023-03-27T04:58:25.950Z,-1.99
2023-03-27T05:00:56.066Z,-1.94
2023-03-27T05:03:27.961Z,-1.92
2023-03-27T05:05:54.872Z,-1.87
2023-03-27T05:08:21.771Z,-2.00
2023-03-27T05:10:48.682Z,-1.98
2023-03-27T05:13:15.496Z,-1.93
2023-03-27T05:15:42.393Z,-1.96
2023-03-27T05:18:09.568Z,-1.91
2023-03-27T05:20:37.126Z,-1.88
2023-03-27T05:23:04.162Z,-1.98
2023-03-27T05:25:32.162Z,-2.04
2023-03-27T05:28:00.384Z,-1.94
2023-03-27T05:30:29.063Z,-1.92
2023-03-27T05:32:59.384Z,-1.94
2023-03-27T05:35:28.585Z,-1.85
2023-03-27T05:37:57.092Z,-1.88
2023-03-27T05:40:25.696Z,-1.91
2023-03-27T05:42:53.338Z,-1.74
2023-03-27T05:45:20.821Z,-1.80
2023-03-27T05:47:49.795Z,-1.87
2023-03-27T05:50:16.924Z,-1.80
2023-03-27T05:52:44.085Z,-1.71
2023-03-27T05:55:10.954Z,-1.63
2023-03-27T05:57:39.464Z,-1.64
2023-03-27T06:00:11.581Z,-1.63
2023-03-27T06:02:39.320Z,-1.59
2023-03-27T06:05:12.995Z,-1.47
2023-03-27T06:07:43.002Z,-1.46
2023-03-27T06:10:13.870Z,-1.53
2023-03-27T06:12:41.926Z,-1.45
2023-03-27T06:15:09.879Z,-1.23
2023-03-27T06:17:39.207Z,-1.20
2023-03-27T06:20:12.742Z,-1.06
2023-03-27T06:22:44.969Z,-1.00
2023-03-27T06:25:12.086Z,-0.90
2023-03-27T06:27:39.396Z,-0.89
2023-03-27T06:30:06.666Z,-0.73
2023-03-27T06:32:34.305Z,-0.63
2023-03-27T06:35:02.758Z,-0.42
2023-03-27T06:37:33.847Z,-0.43
2023-03-27T06:40:00.579Z,-0.31
2023-03-27T06:42:27.363Z,0.07
2023-03-27T06:44:54.094Z,0.16
2023-03-27T06:47:20.983Z,0.89
2023-03-27T06:49:48.752Z,1.57
2023-03-27T06:52:15.729Z,2.19
2023-03-27T06:54:42.530Z,2.63
2023-03-27T06:57:09.289Z,3.42
2023-03-27T06:59:36.323Z,3.88
2023-03-27T07:02:03.403Z,4.01
2023-03-27T07:04:30.270Z,3.86
2023-03-27T07:06:57.071Z,4.47
2023-03-27T07:09:23.807Z,5.03
2023-03-27T07:11:50.674Z,4.84
2023-03-27T07:14:17.490Z,5.41
2023-03-27T07:16:44.341Z,5.65
2023-03-27T07:19:11.202Z,4.94
2023-03-27T07:21:37.945Z,5.23
2023-03-27T07:24:04.847Z,4.97
2023-03-27T07:26:33.507Z,5.04
2023-03-27T07:29:01.002Z,4.29
2023-03-27T07:31:49.002Z,4.33
2023-03-27T07:34:16.003Z,4.02
2023-03-27T07:36:43.404Z,4.05
2023-03-27T07:39:12.525Z,3.49
2023-03-27T07:41:39.330Z,3.30
2023-03-27T07:44:07.323Z,3.33
2023-03-27T07:46:34.251Z,3.22
2023-03-27T07:49:01.255Z,3.24
2023-03-27T07:51:28.345Z,3.39
2023-03-27T07:53:55.882Z,3.23
2023-03-27T07:56:23.602Z,3.64
2023-03-27T07:58:51.603Z,3.64
2023-03-27T08:01:18.413Z,3.44
2023-03-27T08:03:47.329Z,3.52
2023-03-27T08:06:21.736Z,3.49
2023-03-27T08:08:49.563Z,3.55
2023-03-27T08:11:29.664Z,3.62
2023-03-27T08:13:58.499Z,3.78
2023-03-27T08:16:28.972Z,4.04
2023-03-27T08:18:56.282Z,4.05
2023-03-27T08:21:23.890Z,3.85
2023-03-27T08:23:50.685Z,3.68
2023-03-27T08:26:18.140Z,3.76
2023-03-27T08:28:45.018Z,3.98
2023-03-27T08:31:14.186Z,3.82
2023-03-27T08:33:42.839Z,3.69
2023-03-27T08:36:11.627Z,3.47
2023-03-27T08:38:39.554Z,3.72
2023-03-27T08:41:06.794Z,4.04
2023-03-27T08:43:42.264Z,4.15
2023-03-27T08:46:15.211Z,3.80
2023-03-27T08:49:00.518Z,3.80
2023-03-27T08:51:33.213Z,3.71
2023-03-27T08:54:08.334Z,3.99
2023-03-27T08:56:35.309Z,4.24
2023-03-27T08:59:02.153Z,4.31
2023-03-27T09:01:33.708Z,4.70
2023-03-27T09:04:07.343Z,4.92
2023-03-27T09:07:15.698Z,4.92
2023-03-27T09:09:55.881Z,5.10
2023-03-27T09:12:28.792Z,5.23
2023-03-27T09:15:00.708Z,5.44
2023-03-27T09:17:34.962Z,5.51
2023-03-27T09:20:25.941Z,5.70
2023-03-27T09:22:58.833Z,5.62
2023-03-27T09:25:32.641Z,5.13
2023-03-27T09:28:00.661Z,5.19
2023-03-27T09:30:33.701Z,5.02
2023-03-27T09:33:05.819Z,5.05
2023-03-27T09:35:35.353Z,5.11
2023-03-27T09:38:07.101Z,5.69
2023-03-27T09:40:41.525Z,5.78
2023-03-27T09:43:16.422Z,5.76
2023-03-27T09:45:44.159Z,5.89
2023-03-27T09:48:31.854Z,6.24
2023-03-27T09:50:58.750Z,6.33
2023-03-27T09:53:27.952Z,5.98
2023-03-27T09:55:59.002Z,5.58
2023-03-27T09:58:49.060Z,5.87
2023-03-27T10:01:36.283Z,6.38
2023-03-27T10:04:13.056Z,6.68
2023-03-27T10:06:44.752Z,6.76
2023-03-27T10:09:27.034Z,6.61
2023-03-27T10:12:17.853Z,6.40
2023-03-27T10:14:47.394Z,6.22
2023-03-27T10:17:26.745Z,6.24
2023-03-27T10:19:58.874Z,6.63
2023-03-27T10:22:34.447Z,6.93
2023-03-27T10:25:04.812Z,7.06
2023-03-27T10:27:34.031Z,7.52
2023-03-27T10:30:00.779Z,7.79
2023-03-27T10:32:45.380Z,7.70
2023-03-27T10:35:26.786Z,7.27
2023-03-27T10:37:54.687Z,6.97
2023-03-27T10:40:26.372Z,6.64
2023-03-27T10:43:00.107Z,7.03
2023-03-27T10:45:26.818Z,7.23
2023-03-27T10:47:55.936Z,7.48
2023-03-27T10:50:30.607Z,7.92
2023-03-27T10:53:18.423Z,7.23
2023-03-27T10:56:01.163Z,6.86
2023-03-27T10:58:33.960Z,6.58
2023-03-27T11:01:06.259Z,6.32
2023-03-27T11:04:00.121Z,6.12
2023-03-27T11:06:31.269Z,6.17
2023-03-27T11:09:34.877Z,6.88
2023-03-27T11:12:05.021Z,7.15
2023-03-27T11:14:40.819Z,7.25
2023-03-27T11:17:08.799Z,7.17
2023-03-27T11:19:56.740Z,6.39
2023-03-27T11:22:28.862Z,5.92
2023-03-27T11:25:16.497Z,6.35
2023-03-27T11:28:06.026Z,6.27
2023-03-27T11:30:46.042Z,6.72
2023-03-27T11:33:33.115Z,6.67
2023-03-27T11:36:24.920Z,6.61
2023-03-27T11:39:09.231Z,6.76
2023-03-27T11:41:35.955Z,7.08
2023-03-27T11:44:02.600Z,7.10
2023-03-27T11:46:44.510Z,7.24
2023-03-27T11:49:43.607Z,7.67
2023-03-27T11:52:31.547Z,8.33
2023-03-27T11:55:11.043Z,8.74
2023-03-27T11:57:48.413Z,9.01
2023-03-27T12:00:26.966Z,9.09
2023-03-27T12:03:24.738Z,8.41
2023-03-27T12:06:02.499Z,8.81
2023-03-27T12:08:41.098Z,9.01
2023-03-27T12:11:09.935Z,8.84
2023-03-27T12:14:01.571Z,8.51
2023-03-27T12:16:47.521Z,7.38
2023-03-27T12:19:48.448Z,6.85
2023-03-27T12:22:35.764Z,6.66
2023-03-27T12:25:36.239Z,6.72
2023-03-27T12:28:09.357Z,6.67
2023-03-27T12:30:59.133Z,6.77
2023-03-27T12:33:33.538Z,6.89
2023-03-27T12:36:05.593Z,6.94
2023-03-27T12:38:41.075Z,6.91
2023-03-27T12:41:23.363Z,7.19
2023-03-27T12:43:57.910Z,6.78
2023-03-27T12:46:24.630Z,6.81
2023-03-27T12:48:54.462Z,6.97
2023-03-27T12:51:43.919Z,6.88
2023-03-27T12:54:25.722Z,6.77
2023-03-27T12:57:15.868Z,6.86
2023-03-27T12:59:48.960Z,6.83
2023-03-27T13:02:18.566Z,7.22
2023-03-27T13:05:24.032Z,6.99
2023-03-27T13:08:18.392Z,6.83
2023-03-27T13:11:00.731Z,6.85
2023-03-27T13:13:49.363Z,6.97
2023-03-27T13:16:50.312Z,7.37
2023-03-27T13:19:37.090Z,7.19
2023-03-27T13:22:18.862Z,7.49
2023-03-27T13:25:05.820Z,7.47
2023-03-27T13:27:54.048Z,7.54
2023-03-27T13:30:46.622Z,7.66
2023-03-27T13:33:28.896Z,7.67
2023-03-27T13:36:02.508Z,7.34
2023-03-27T13:38:45.975Z,7.29
2023-03-27T13:41:43.513Z,7.38
2023-03-27T13:44:14.132Z,7.31
2023-03-27T13:47:01.961Z,7.37
2023-03-27T13:49:33.855Z,7.51
2023-03-27T13:52:28.021Z,7.78
2023-03-27T13:55:20.007Z,7.66
2023-03-27T13:58:02.959Z,7.69
2023-03-27T14:00:56.768Z,7.42
2023-03-27T14:04:06.756Z,7.58
2023-03-27T14:06:58.153Z,7.28
2023-03-27T14:09:45.436Z,7.10
2023-03-27T14:12:53.177Z,6.98
2023-03-27T14:15:33.060Z,6.99
2023-03-27T14:18:21.210Z,6.98
2023-03-27T14:21:11.904Z,6.88
2023-03-27T14:23:49.557Z,6.75
2023-03-27T14:26:25.641Z,7.00
2023-03-27T14:29:02.307Z,7.19
2023-03-27T14:31:37.380Z,7.10
2023-03-27T14:34:25.458Z,6.80
2023-03-27T14:36:58.504Z,7.05
2023-03-27T14:39:28.652Z,6.99
2023-03-27T14:42:02.536Z,6.41
2023-03-27T14:44:32.789Z,6.47
2023-03-27T14:47:06.258Z,6.47
2023-03-27T14:49:39.206Z,6.70
2023-03-27T14:52:08.068Z,6.30
2023-03-27T14:54:44.621Z,6.41
2023-03-27T14:57:20.736Z,6.36
2023-03-27T14:59:47.558Z,6.30
2023-03-27T15:02:21.329Z,6.17
2023-03-27T15:04:48.293Z,5.91
2023-03-27T15:07:18.939Z,5.85
2023-03-27T15:09:46.981Z,5.92
2023-03-27T15:12:13.635Z,5.77
2023-03-27T15:14:41.403Z,5.78
2023-03-27T15:17:17.779Z,5.77
2023-03-27T15:19:54.775Z,5.67
2023-03-27T15:22:31.646Z,5.57
2023-03-27T15:25:03.760Z,5.46
2023-03-27T15:27:32.477Z,5.49
2023-03-27T15:30:33.996Z,5.33
2023-03-27T15:33:02.220Z,5.12
2023-03-27T15:35:35.311Z,5.25
2023-03-27T15:38:03.374Z,5.28
2023-03-27T15:40:39.046Z,5.41
2023-03-27T15:43:13.906Z,5.46
2023-03-27T15:45:43.251Z,5.46
2023-03-27T15:48:15.828Z,5.63
2023-03-27T15:50:57.432Z,5.60
2023-03-27T15:53:32.253Z,5.60
2023-03-27T15:56:00.942Z,5.55
2023-03-27T15:58:30.404Z,5.67
2023-03-27T16:01:18.254Z,5.70
2023-03-27T16:03:48.406Z,5.71
2023-03-27T16:06:26.734Z,5.68
2023-03-27T16:08:53.808Z,5.64
2023-03-27T16:11:41.925Z,5.60
2023-03-27T16:14:21.611Z,5.53
2023-03-27T16:16:49.671Z,5.54
2023-03-27T16:19:16.435Z,5.53
2023-03-27T16:21:56.636Z,5.61
2023-03-27T16:24:23.404Z,5.66
2023-03-27T16:26:51.221Z,5.58
2023-03-27T16:29:19.396Z,5.49
2023-03-27T16:31:46.235Z,5.46
2023-03-27T16:34:23.062Z,5.43
2023-03-27T16:36:50.393Z,5.31
2023-03-27T16:39:17.190Z,5.16
2023-03-27T16:41:43.870Z,5.09
2023-03-27T16:44:10.801Z,4.90
2023-03-27T16:46:37.437Z,4.91
2023-03-27T16:49:04.113Z,4.90
2023-03-27T16:51:31.043Z,4.75
2023-03-27T16:53:57.809Z,4.76
2023-03-27T16:56:27.403Z,4.75
2023-03-27T16:58:56.990Z,4.75
2023-03-27T17:01:26.502Z,4.70
2023-03-27T17:03:53.240Z,4.62
2023-03-27T17:06:21.891Z,4.50
2023-03-27T17:08:49.259Z,4.50
2023-03-27T17:11:15.958Z,4.40
2023-03-27T17:13:43.813Z,4.35
2023-03-27T17:16:10.909Z,4.43
2023-03-27T17:18:37.555Z,4.41
2023-03-27T17:21:04.374Z,4.37
2023-03-27T17:23:31.727Z,3.98
2023-03-27T17:26:02.795Z,4.16
2023-03-27T17:28:31.081Z,3.93
2023-03-27T17:31:04.605Z,3.81
2023-03-27T17:33:32.117Z,3.79
2023-03-27T17:35:58.909Z,3.65
2023-03-27T17:38:25.820Z,3.61
2023-03-27T17:40:52.438Z,3.35
2023-03-27T17:43:19.119Z,3.21
2023-03-27T17:45:45.869Z,2.79
2023-03-27T17:48:12.675Z,2.36
2023-03-27T17:50:39.348Z,2.09
2023-03-27T17:53:06.865Z,2.20
2023-03-27T17:55:36.806Z,2.18
2023-03-27T17:58:09.331Z,2.39
2023-03-27T18:00:37.685Z,2.24
2023-03-27T18:03:04.813Z,2.08
2023-03-27T18:05:37.445Z,2.10
2023-03-27T18:08:05.045Z,1.84
2023-03-27T18:10:33.592Z,1.87
2023-03-27T18:13:02.616Z,1.87
2023-03-27T18:15:29.531Z,1.94
2023-03-27T18:17:56.233Z,1.93
2023-03-27T18:20:22.957Z,1.99
2023-03-27T18:22:49.594Z,1.94
2023-03-27T18:25:16.218Z,2.13
2023-03-27T18:27:44.720Z,2.18
2023-03-27T18:30:13.495Z,2.17
2023-03-27T18:32:41.549Z,2.06
2023-03-27T18:35:14.084Z,2.01
2023-03-27T18:37:45.241Z,2.01
2023-03-27T18:40:15.095Z,2.02
2023-03-27T18:42:47.517Z,2.08
2023-03-27T18:45:16.648Z,2.03
2023-03-27T18:47:44.240Z,1.93
2023-03-27T18:50:12.800Z,1.89
2023-03-27T18:52:39.670Z,1.85
2023-03-27T18:55:08.221Z,1.83
2023-03-27T18:57:35.762Z,1.76
2023-03-27T19:00:02.544Z,1.78
2023-03-27T19:02:29.255Z,1.85
2023-03-27T19:04:56.049Z,1.74
2023-03-27T19:07:22.706Z,1.68
2023-03-27T19:09:49.339Z,1.66
2023-03-27T19:12:15.996Z,1.71
2023-03-27T19:14:42.695Z,1.60
2023-03-27T19:17:14.555Z,1.60
2023-03-27T19:19:43.033Z,1.54
2023-03-27T19:22:12.921Z,1.52
2023-03-27T19:24:40.063Z,1.54
2023-03-27T19:27:07.144Z,1.48
2023-03-27T19:29:50.311Z,1.45
2023-03-27T19:32:16.928Z,1.44
2023-03-27T19:34:43.701Z,1.43
2023-03-27T19:37:10.862Z,1.46
2023-03-27T19:39:37.984Z,1.38
2023-03-27T19:42:04.735Z,1.37
2023-03-27T19:44:31.712Z,1.38
2023-03-27T19:46:58.609Z,1.27
2023-03-27T19:49:25.520Z,1.33
2023-03-27T19:51:52.778Z,1.52
2023-03-27T19:54:19.553Z,1.49
2023-03-27T19:56:46.419Z,1.45
2023-03-27T19:59:20.731Z,1.39
2023-03-27T20:01:51.082Z,1.50
2023-03-27T20:04:17.786Z,1.45
2023-03-27T20:06:46.935Z,1.42
2023-03-27T20:09:16.392Z,1.42
2023-03-27T20:11:43.806Z,1.49
2023-03-27T20:14:11.364Z,1.56
2023-03-27T20:16:38.758Z,1.55
2023-03-27T20:19:05.478Z,1.58
2023-03-27T20:21:37.718Z,1.63
2023-03-27T20:24:05.824Z,1.48
2023-03-27T20:26:39.055Z,1.41
2023-03-27T20:29:10.833Z,1.45
2023-03-27T20:31:38.353Z,1.48
2023-03-27T20:34:05.862Z,1.73
2023-03-27T20:36:35.139Z,1.54
2023-03-27T20:39:07.062Z,1.53
2023-03-27T20:41:38.857Z,1.82
2023-03-27T20:44:16.356Z,1.76
2023-03-27T20:46:51.751Z,1.54
2023-03-27T20:49:39.834Z,1.47
2023-03-27T20:52:08.513Z,1.44
2023-03-27T20:54:35.238Z,1.54
2023-03-27T20:57:02.727Z,1.55
2023-03-27T20:59:30.778Z,1.57
2023-03-27T21:01:58.098Z,1.61
2023-03-27T21:04:26.153Z,1.59
2023-03-27T21:06:56.113Z,1.66
2023-03-27T21:09:24.332Z,1.64
2023-03-27T21:11:51.326Z,1.72
2023-03-27T21:14:18.024Z,1.73
2023-03-27T21:16:44.956Z,1.81
2023-03-27T21:19:11.898Z,1.70
2023-03-27T21:21:38.965Z,1.71
2023-03-27T21:24:06.176Z,1.85
2023-03-27T21:26:33.398Z,1.82
2023-03-27T21:29:00.339Z,1.76
2023-03-27T21:31:27.296Z,1.74
2023-03-27T21:33:54.196Z,1.56
2023-03-27T21:36:21.178Z,1.66
2023-03-27T21:38:49.933Z,1.60
2023-03-27T21:41:17.544Z,1.66
2023-03-27T21:43:44.397Z,1.53
2023-03-27T21:46:11.235Z,1.42
2023-03-27T21:48:40.466Z,1.59
2023-03-27T21:51:08.630Z,1.58
2023-03-27T21:53:35.789Z,1.60
2023-03-27T21:56:02.842Z,1.60
2023-03-27T21:58:29.590Z,1.60
2023-03-27T22:00:57.659Z,1.59
2023-03-27T22:03:25.615Z,1.55
2023-03-27T22:06:08.085Z,1.61
2023-03-27T22:08:38.036Z,1.67
2023-03-27T22:11:04.886Z,1.64
2023-03-27T22:13:31.729Z,1.61
2023-03-27T22:15:58.656Z,1.66
2023-03-27T22:18:25.604Z,1.67
2023-03-27T22:20:52.273Z,1.78
2023-03-27T22:23:18.921Z,1.81
2023-03-27T22:25:56.245Z,1.76
2023-03-27T22:28:23.148Z,1.73
2023-03-27T22:30:52.986Z,1.61
2023-03-27T22:33:20.266Z,1.10
2023-03-27T22:35:50.518Z,0.92
2023-03-27T22:38:17.559Z,0.56
2023-03-27T22:40:44.257Z,0.50
2023-03-27T22:43:22.796Z,0.52
2023-03-27T22:45:50.472Z,0.23
2023-03-27T22:48:17.551Z,0.27
2023-03-27T22:50:46.257Z,0.25
2023-03-27T22:53:12.830Z,0.26
2023-03-27T22:55:39.616Z,0.29
2023-03-27T22:58:06.245Z,0.24
2023-03-27T23:00:32.856Z,0.22
2023-03-27T23:02:59.858Z,0.13
2023-03-27T23:05:26.636Z,0.11
2023-03-27T23:07:53.288Z,0.18
2023-03-27T23:10:19.971Z,0.16
2023-03-27T23:12:46.734Z,0.12
2023-03-27T23:15:13.347Z,0.09
2023-03-27T23:17:40.069Z,0.10
2023-03-27T23:20:07.078Z,0.21
2023-03-27T23:22:33.706Z,0.07
2023-03-27T23:25:00.322Z,0.05
2023-03-27T23:27:27.070Z,0.15
2023-03-27T23:29:53.662Z,0.02
2023-03-27T23:32:20.890Z,0.01
2023-03-27T23:34:47.675Z,-0.05
2023-03-27T23:37:14.386Z,-0.05
2023-03-27T23:39:43.948Z,-0.12
2023-03-27T23:42:10.830Z,-0.24
2023-03-27T23:44:39.952Z,-0.22
2023-03-27T23:47:10.134Z,-0.08
2023-03-27T23:49:36.847Z,-0.24
2023-03-27T23:52:03.603Z,-0.30
2023-03-27T23:54:30.412Z,-0.22
2023-03-27T23:56:57.810Z,-0.23
2023-03-27T23:59:24.447Z,-0.27
